createdAt,value
2018-02-27T00:02:12.675Z,7.20
2018-02-27T00:04:41.426Z,9.70
2018-02-27T00:07:09.457Z,8.18
2018-02-27T00:09:37.406Z,10.07
2018-02-27T00:12:05.494Z,6.90
2018-02-27T00:14:33.418Z,6.00
2018-02-27T00:17:01.370Z,6.55
2018-02-27T00:19:29.299Z,6.72
2018-02-27T00:21:57.371Z,7.60
2018-02-27T00:24:25.675Z,7.05
2018-02-27T00:26:53.719Z,7.00
2018-02-27T00:29:21.710Z,6.03
2018-02-27T00:31:49.640Z,6.80
2018-02-27T00:34:18.325Z,6.55
2018-02-27T00:36:46.272Z,6.87
2018-02-27T00:39:14.186Z,6.60
2018-02-27T00:41:42.127Z,6.53
2018-02-27T00:44:14.325Z,6.53
2018-02-27T00:46:42.248Z,6.50
2018-02-27T00:49:10.351Z,7.35
2018-02-27T00:51:38.251Z,6.78
2018-02-27T00:54:06.236Z,6.55
2018-02-27T00:56:34.218Z,5.35
2018-02-27T00:59:02.167Z,5.68
2018-02-27T01:01:30.104Z,6.20
2018-02-27T01:03:58.134Z,4.72
2018-02-27T01:06:26.083Z,4.50
2018-02-27T01:08:54.440Z,4.87
2018-02-27T01:11:22.433Z,4.53
2018-02-27T01:13:50.340Z,4.60
2018-02-27T01:16:18.307Z,4.57
2018-02-27T01:18:46.238Z,4.20
2018-02-27T01:21:14.290Z,5.00
2018-02-27T01:23:42.221Z,4.55
2018-02-27T01:26:10.150Z,4.40
2018-02-27T01:28:38.143Z,3.47
2018-02-27T01:31:06.161Z,2.83
2018-02-27T01:33:34.118Z,3.05
2018-02-27T01:36:02.097Z,2.97
2018-02-27T01:38:30.014Z,3.00
2018-02-27T01:40:57.983Z,3.00
2018-02-27T01:43:25.909Z,3.33
2018-02-27T01:45:53.839Z,3.75
2018-02-27T01:48:21.781Z,3.20
2018-02-27T01:51:01.668Z,2.95
2018-02-27T01:53:29.617Z,3.10
2018-02-27T01:55:57.530Z,2.60
2018-02-27T01:58:25.464Z,3.05
2018-02-27T02:00:53.374Z,2.40
2018-02-27T02:03:22.744Z,2.78
2018-02-27T02:05:50.679Z,2.67
2018-02-27T02:08:18.666Z,3.53
2018-02-27T02:10:46.601Z,2.65
2018-02-27T02:13:14.652Z,2.83
2018-02-27T02:15:42.598Z,2.50
2018-02-27T02:18:10.570Z,2.95
2018-02-27T02:20:38.503Z,2.60
2018-02-27T02:23:06.571Z,3.58
2018-02-27T02:25:34.519Z,3.30
2018-02-27T02:28:02.517Z,2.75
2018-02-27T02:30:30.477Z,3.58
2018-02-27T02:32:58.398Z,3.45
2018-02-27T02:35:26.353Z,4.05
2018-02-27T02:37:54.297Z,3.25
2018-02-27T02:40:22.232Z,3.03
2018-02-27T02:42:50.236Z,3.20
2018-02-27T02:45:18.173Z,3.30
2018-02-27T02:47:46.125Z,3.50
2018-02-27T02:50:14.060Z,3.30
2018-02-27T02:52:42.001Z,3.78
2018-02-27T02:55:09.946Z,3.05
2018-02-27T02:57:37.914Z,3.20
2018-02-27T03:00:05.841Z,3.70
2018-02-27T03:02:33.760Z,4.43
2018-02-27T03:05:01.746Z,3.20
2018-02-27T03:07:29.666Z,2.90
2018-02-27T03:09:57.739Z,3.90
2018-02-27T03:12:28.439Z,3.40
2018-02-27T03:14:56.361Z,2.90
2018-02-27T03:17:24.391Z,3.05
2018-02-27T03:19:52.382Z,2.95
2018-02-27T03:22:20.327Z,2.65
2018-02-27T03:24:48.314Z,2.53
2018-02-27T03:27:16.365Z,2.80
2018-02-27T03:29:44.295Z,2.85
2018-02-27T03:32:12.232Z,2.25
2018-02-27T03:34:40.181Z,2.03
2018-02-27T03:37:08.368Z,2.08
2018-02-27T03:39:36.404Z,1.73
2018-02-27T03:42:04.404Z,2.50
2018-02-27T03:44:32.818Z,2.00
2018-02-27T03:47:00.824Z,1.90
2018-02-27T03:49:28.821Z,1.95
2018-02-27T03:51:56.742Z,2.20
2018-02-27T03:54:24.705Z,2.20
2018-02-27T03:56:52.640Z,3.12
2018-02-27T03:59:20.610Z,2.20
2018-02-27T04:01:48.561Z,2.08
2018-02-27T04:04:16.521Z,2.40
2018-02-27T04:06:44.456Z,1.50
2018-02-27T04:09:12.388Z,2.28
2018-02-27T04:11:40.333Z,1.75
2018-02-27T04:14:08.262Z,2.00
2018-02-27T04:16:36.212Z,1.90
2018-02-27T04:19:04.146Z,2.15
2018-02-27T04:21:32.134Z,2.12
2018-02-27T04:24:00.101Z,2.58
2018-02-27T04:26:28.023Z,2.28
2018-02-27T04:28:55.972Z,2.75
2018-02-27T04:31:23.889Z,2.10
2018-02-27T04:33:51.951Z,2.25
2018-02-27T04:36:19.945Z,2.47
2018-02-27T04:38:48.095Z,3.70
2018-02-27T04:41:16.009Z,2.65
2018-02-27T04:43:44.009Z,2.28
2018-02-27T04:46:11.964Z,2.90
2018-02-27T04:48:39.928Z,1.95
2018-02-27T04:51:07.887Z,2.40
2018-02-27T04:53:35.818Z,2.97
2018-02-27T04:56:03.841Z,3.20
2018-02-27T04:58:31.772Z,2.53
2018-02-27T05:00:59.879Z,2.55
2018-02-27T05:03:28.007Z,2.22
2018-02-27T05:05:55.969Z,1.80
2018-02-27T05:08:23.959Z,2.35
2018-02-27T05:10:51.881Z,2.22
2018-02-27T05:13:19.806Z,1.85
2018-02-27T05:15:47.757Z,2.70
2018-02-27T05:18:15.727Z,1.70
2018-02-27T05:20:43.659Z,2.00
2018-02-27T05:23:11.609Z,2.42
2018-02-27T05:25:39.549Z,1.90
2018-02-27T05:28:07.511Z,1.87
2018-02-27T05:30:35.483Z,2.72
2018-02-27T05:33:03.424Z,1.95
2018-02-27T05:35:31.395Z,2.65
2018-02-27T05:37:59.319Z,1.83
2018-02-27T05:40:27.287Z,1.83
2018-02-27T05:42:55.250Z,2.47
2018-02-27T05:45:23.190Z,2.05
2018-02-27T05:47:51.092Z,1.90
2018-02-27T05:50:19.100Z,2.75
2018-02-27T05:52:47.142Z,2.12
2018-02-27T05:55:15.066Z,2.20
2018-02-27T05:57:42.994Z,1.95
2018-02-27T06:00:10.997Z,1.83
2018-02-27T06:02:39.068Z,2.00
2018-02-27T06:05:06.950Z,4.30
2018-02-27T06:07:34.906Z,3.08
2018-02-27T06:10:02.871Z,2.10
2018-02-27T06:12:30.786Z,2.50
2018-02-27T06:14:58.735Z,2.37
2018-02-27T06:17:26.669Z,2.37
2018-02-27T06:19:54.708Z,3.95
2018-02-27T06:22:22.630Z,2.30
2018-02-27T06:24:50.648Z,2.30
2018-02-27T06:27:18.597Z,2.58
2018-02-27T06:29:46.779Z,2.50
2018-02-27T06:32:15.014Z,6.37
2018-02-27T06:34:42.981Z,3.12
2018-02-27T06:37:11.297Z,3.65
2018-02-27T06:39:39.546Z,5.50
2018-02-27T06:42:07.486Z,3.97
2018-02-27T06:44:35.419Z,2.70
2018-02-27T06:47:03.344Z,4.78
2018-02-27T06:49:31.292Z,4.25
2018-02-27T06:51:59.223Z,7.32
2018-02-27T06:54:27.214Z,5.30
2018-02-27T06:56:59.378Z,7.03
2018-02-27T06:59:27.301Z,5.35
2018-02-27T07:01:55.492Z,4.60
2018-02-27T07:04:23.430Z,9.50
2018-02-27T07:06:51.444Z,6.40
2018-02-27T07:09:19.405Z,7.62
2018-02-27T07:11:47.326Z,3.47
2018-02-27T07:14:15.268Z,2.35
2018-02-27T07:16:43.220Z,4.10
2018-02-27T07:19:11.343Z,4.85
2018-02-27T07:21:39.284Z,3.90
2018-02-27T07:24:07.433Z,2.97
2018-02-27T07:26:35.366Z,2.50
2018-02-27T07:29:03.421Z,3.30
2018-02-27T07:31:31.526Z,3.08
2018-02-27T07:33:59.503Z,10.73
2018-02-27T07:36:27.506Z,16.02
2018-02-27T07:38:55.531Z,30.52
2018-02-27T07:41:23.470Z,12.95
2018-02-27T07:43:51.410Z,6.90
2018-02-27T07:46:19.515Z,11.00
2018-02-27T07:48:47.555Z,5.25
2018-02-27T07:51:15.565Z,6.90
2018-02-27T07:53:43.766Z,5.40
2018-02-27T07:56:11.721Z,4.18
2018-02-27T07:58:39.674Z,11.73
2018-02-27T08:01:07.604Z,3.05
2018-02-27T08:03:35.559Z,2.10
2018-02-27T08:06:03.498Z,1.50
2018-02-27T08:08:31.459Z,1.95
2018-02-27T08:10:59.417Z,1.23
2018-02-27T08:13:27.561Z,1.30
2018-02-27T08:15:55.526Z,1.37
2018-02-27T08:18:23.451Z,1.48
2018-02-27T08:20:51.586Z,1.10
2018-02-27T08:23:19.537Z,1.70
2018-02-27T08:25:47.528Z,2.08
2018-02-27T08:28:15.450Z,2.12
2018-02-27T08:30:43.503Z,1.17
2018-02-27T08:33:11.466Z,1.40
2018-02-27T08:35:39.378Z,1.40
2018-02-27T08:38:07.333Z,1.20
2018-02-27T08:40:35.264Z,1.75
2018-02-27T08:43:03.234Z,1.73
2018-02-27T08:45:31.178Z,1.30
2018-02-27T08:47:59.159Z,1.98
2018-02-27T08:50:27.100Z,1.65
2018-02-27T08:52:55.066Z,2.00
2018-02-27T08:55:23.129Z,1.92
2018-02-27T08:57:51.382Z,1.48
2018-02-27T09:00:19.362Z,2.15
2018-02-27T09:02:47.338Z,2.08
2018-02-27T09:05:15.307Z,2.10
2018-02-27T09:07:43.277Z,1.70
2018-02-27T09:10:11.194Z,2.15
2018-02-27T09:12:39.186Z,1.90
2018-02-27T09:15:07.147Z,1.35
2018-02-27T09:17:35.171Z,3.08
2018-02-27T09:20:03.154Z,2.00
2018-02-27T09:22:31.090Z,1.90
2018-02-27T09:24:59.061Z,1.35
2018-02-27T09:27:27.036Z,2.03
2018-02-27T09:29:55.020Z,1.50
2018-02-27T09:32:22.969Z,1.52
2018-02-27T09:34:51.007Z,2.10
2018-02-27T09:37:18.965Z,1.35
2018-02-27T09:39:47.027Z,2.00
2018-02-27T09:42:15.084Z,1.27
2018-02-27T09:44:43.027Z,2.08
2018-02-27T09:47:11.034Z,2.92
2018-02-27T09:49:39.041Z,2.42
2018-02-27T09:52:06.999Z,3.20
2018-02-27T09:54:34.938Z,2.78
2018-02-27T09:57:02.883Z,4.20
2018-02-27T09:59:30.833Z,4.22
2018-02-27T10:01:58.798Z,3.70
2018-02-27T10:04:26.794Z,4.32
2018-02-27T10:06:54.743Z,3.65
2018-02-27T10:09:22.993Z,3.80
2018-02-27T10:11:50.912Z,3.90
2018-02-27T10:14:18.858Z,4.12
2018-02-27T10:16:46.784Z,4.20
2018-02-27T10:19:14.735Z,4.85
2018-02-27T10:21:42.669Z,30.30
2018-02-27T10:24:10.708Z,36.60
2018-02-27T10:26:38.622Z,18.27
2018-02-27T10:29:06.549Z,27.63
2018-02-27T10:31:34.488Z,25.73
2018-02-27T10:34:02.426Z,6.03
2018-02-27T10:36:30.350Z,3.50
2018-02-27T10:38:58.287Z,3.70
2018-02-27T10:41:26.235Z,4.00
2018-02-27T10:43:54.162Z,3.07
2018-02-27T10:46:22.139Z,3.33
2018-02-27T10:48:50.081Z,4.47
2018-02-27T10:51:17.988Z,3.43
2018-02-27T10:53:45.910Z,2.70
2018-02-27T10:56:13.819Z,2.70
2018-02-27T10:58:41.749Z,2.20
2018-02-27T11:01:15.362Z,3.30
2018-02-27T11:03:43.323Z,2.80
2018-02-27T11:06:11.238Z,2.80
2018-02-27T11:08:39.206Z,2.67
2018-02-27T11:11:07.144Z,3.03
2018-02-27T11:13:35.091Z,2.33
2018-02-27T11:16:03.038Z,2.20
2018-02-27T11:18:31.758Z,2.60
2018-02-27T11:20:59.708Z,2.50
2018-02-27T11:23:27.638Z,2.50
2018-02-27T11:25:55.608Z,2.70
2018-02-27T11:28:23.571Z,10.77
2018-02-27T11:30:51.546Z,22.93
2018-02-27T11:33:19.492Z,9.40
2018-02-27T11:35:47.421Z,44.57
2018-02-27T11:38:15.380Z,23.77
2018-02-27T11:40:43.366Z,11.20
2018-02-27T11:43:11.340Z,13.13
2018-02-27T11:45:39.251Z,7.60
2018-02-27T11:48:07.220Z,5.77
2018-02-27T11:50:35.150Z,2.60
2018-02-27T11:53:03.106Z,10.20
2018-02-27T11:55:31.066Z,2.47
2018-02-27T11:57:59.001Z,1.90
2018-02-27T12:00:26.938Z,2.10
2018-02-27T12:02:54.923Z,2.20
2018-02-27T12:05:22.890Z,1.80
2018-02-27T12:07:50.884Z,2.20
2018-02-27T12:10:18.881Z,2.23
2018-02-27T12:12:46.802Z,2.20
2018-02-27T12:15:14.738Z,2.70
2018-02-27T12:17:42.662Z,2.50
2018-02-27T12:20:10.627Z,6.33
2018-02-27T12:22:38.638Z,12.23
2018-02-27T12:25:06.570Z,20.40
2018-02-27T12:27:34.590Z,7.60
2018-02-27T12:30:02.556Z,3.93
2018-02-27T12:32:30.498Z,3.27
2018-02-27T12:34:58.437Z,3.07
2018-02-27T12:37:26.470Z,3.50
2018-02-27T12:39:54.393Z,3.13
2018-02-27T12:42:22.354Z,3.33
2018-02-27T12:44:50.350Z,4.10
2018-02-27T12:47:18.290Z,16.93
2018-02-27T12:49:46.261Z,5.93
2018-02-27T12:52:14.217Z,5.80
2018-02-27T12:54:42.159Z,12.93
2018-02-27T12:57:10.098Z,6.30
2018-02-27T12:59:39.267Z,15.00
2018-02-27T13:02:07.281Z,26.97
2018-02-27T13:04:36.152Z,6.83
2018-02-27T13:07:04.094Z,38.70
2018-02-27T13:09:32.238Z,6.10
2018-02-27T13:12:00.163Z,4.90
2018-02-27T13:14:28.103Z,6.30
2018-02-27T13:16:56.051Z,5.73
2018-02-27T13:19:24.659Z,6.40
2018-02-27T13:21:53.829Z,5.90
2018-02-27T13:24:21.752Z,7.00
2018-02-27T13:26:49.698Z,6.73
2018-02-27T13:29:17.622Z,7.10
2018-02-27T13:31:45.592Z,8.80
2018-02-27T13:34:13.560Z,8.20
2018-02-27T13:36:41.520Z,9.70
2018-02-27T13:39:09.483Z,8.10
2018-02-27T13:41:38.008Z,8.33
2018-02-27T13:44:06.102Z,9.10
2018-02-27T13:46:34.184Z,9.80
2018-02-27T13:49:04.118Z,10.43
2018-02-27T13:51:30.050Z,10.52
2018-02-27T13:53:58.005Z,10.80
2018-02-27T13:56:26.012Z,11.23
2018-02-27T13:58:54.046Z,8.77
2018-02-27T14:01:21.961Z,10.95
2018-02-27T14:03:49.911Z,13.82
2018-02-27T14:06:17.854Z,11.75
2018-02-27T14:08:45.851Z,11.45
2018-02-27T14:11:13.808Z,13.18
2018-02-27T14:13:41.837Z,10.93
2018-02-27T14:16:09.779Z,13.40
2018-02-27T14:18:37.726Z,13.00
2018-02-27T14:21:05.717Z,12.85
2018-02-27T14:23:33.649Z,12.50
2018-02-27T14:26:01.661Z,12.52
2018-02-27T14:28:29.608Z,13.27
2018-02-27T14:30:58.212Z,13.45
2018-02-27T14:33:26.171Z,14.43
2018-02-27T14:35:54.109Z,13.70
2018-02-27T14:38:22.046Z,12.77
2018-02-27T14:40:50.024Z,13.32
2018-02-27T14:43:17.962Z,12.57
2018-02-27T14:45:45.901Z,13.48
2018-02-27T14:48:13.918Z,14.00
2018-02-27T14:50:41.845Z,12.35
2018-02-27T14:53:09.783Z,13.68
2018-02-27T14:55:37.720Z,14.87
2018-02-27T14:58:05.698Z,14.93
2018-02-27T15:00:33.658Z,16.08
2018-02-27T15:03:01.691Z,14.98
2018-02-27T15:05:30.220Z,15.02
2018-02-27T15:07:58.181Z,14.68
2018-02-27T15:10:26.151Z,13.88
2018-02-27T15:12:54.197Z,14.55
2018-02-27T15:15:22.247Z,13.85
2018-02-27T15:17:50.192Z,13.48
2018-02-27T15:20:18.152Z,15.13
2018-02-27T15:22:46.190Z,14.30
2018-02-27T15:25:14.137Z,15.15
2018-02-27T15:27:42.062Z,14.50
2018-02-27T15:30:09.986Z,15.50
2018-02-27T15:32:37.925Z,15.60
2018-02-27T15:35:05.871Z,14.82
2018-02-27T15:37:33.817Z,13.73
2018-02-27T15:40:01.871Z,13.98
2018-02-27T15:42:29.810Z,12.82
2018-02-27T15:44:57.754Z,15.15
2018-02-27T15:47:25.733Z,11.68
2018-02-27T15:49:53.699Z,10.85
2018-02-27T15:52:21.655Z,12.25
2018-02-27T15:54:49.645Z,10.43
2018-02-27T15:57:17.657Z,12.10
2018-02-27T15:59:45.590Z,12.00
2018-02-27T16:02:13.552Z,10.07
2018-02-27T16:04:41.504Z,28.27
2018-02-27T16:07:09.471Z,14.98
2018-02-27T16:09:37.398Z,14.48
2018-02-27T16:12:05.312Z,44.50
2018-02-27T16:14:33.289Z,11.48
2018-02-27T16:17:01.251Z,8.27
2018-02-27T16:19:29.187Z,8.52
2018-02-27T16:21:57.156Z,9.95
2018-02-27T16:24:25.109Z,8.25
2018-02-27T16:26:53.312Z,8.50
2018-02-27T16:29:21.243Z,7.82
2018-02-27T16:31:49.209Z,8.00
2018-02-27T16:34:17.250Z,8.98
2018-02-27T16:36:45.203Z,8.05
2018-02-27T16:39:13.186Z,8.05
2018-02-27T16:41:41.208Z,7.57
2018-02-27T16:44:09.224Z,7.82
2018-02-27T16:46:37.149Z,7.87
2018-02-27T16:49:05.218Z,7.30
2018-02-27T16:51:33.193Z,7.47
2018-02-27T16:54:01.173Z,8.35
2018-02-27T16:56:29.189Z,7.95
2018-02-27T16:58:57.236Z,8.25
2018-02-27T17:01:25.216Z,7.85
2018-02-27T17:03:53.184Z,8.70
2018-02-27T17:06:21.160Z,7.18
2018-02-27T17:08:49.082Z,8.70
2018-02-27T17:11:17.050Z,10.90
2018-02-27T17:13:45.054Z,7.53
2018-02-27T17:16:13.225Z,8.13
2018-02-27T17:18:41.157Z,7.57
2018-02-27T17:21:09.100Z,7.82
2018-02-27T17:23:37.043Z,9.50
2018-02-27T17:26:05.015Z,15.95
2018-02-27T17:28:32.981Z,13.50
2018-02-27T17:31:01.671Z,12.80
2018-02-27T17:33:29.635Z,16.25
2018-02-27T17:35:57.641Z,14.60
2018-02-27T17:38:25.639Z,11.05
2018-02-27T17:40:53.677Z,8.18
2018-02-27T17:43:21.739Z,6.55
2018-02-27T17:45:49.658Z,7.65
2018-02-27T17:48:17.612Z,7.70
2018-02-27T17:50:45.592Z,7.32
2018-02-27T17:53:13.547Z,7.35
2018-02-27T17:55:41.514Z,6.80
2018-02-27T17:58:09.449Z,7.93
2018-02-27T18:00:37.404Z,8.23
2018-02-27T18:03:05.345Z,7.07
2018-02-27T18:05:33.289Z,7.65
2018-02-27T18:08:01.205Z,6.78
2018-02-27T18:10:29.152Z,7.53
2018-02-27T18:12:57.117Z,7.20
2018-02-27T18:15:25.116Z,7.18
2018-02-27T18:17:53.137Z,7.55
2018-02-27T18:20:21.219Z,7.75
2018-02-27T18:22:49.236Z,8.40
2018-02-27T18:25:17.180Z,7.87
2018-02-27T18:27:45.141Z,9.02
2018-02-27T18:30:13.165Z,7.85
2018-02-27T18:32:42.738Z,6.20
2018-02-27T18:35:10.664Z,6.45
2018-02-27T18:37:39.155Z,7.10
2018-02-27T18:40:07.546Z,8.15
2018-02-27T18:42:35.589Z,8.93
2018-02-27T18:45:05.469Z,7.80
2018-02-27T18:47:33.441Z,6.32
2018-02-27T18:50:01.367Z,7.50
2018-02-27T18:52:29.287Z,6.30
2018-02-27T18:54:57.233Z,5.62
2018-02-27T18:57:25.171Z,5.97
2018-02-27T18:59:53.134Z,7.50
2018-02-27T19:02:21.032Z,5.68
2018-02-27T19:04:49.012Z,5.97
2018-02-27T19:07:16.933Z,5.22
2018-02-27T19:09:44.843Z,5.70
2018-02-27T19:12:12.775Z,4.03
2018-02-27T19:14:40.699Z,5.60
2018-02-27T19:17:08.625Z,4.35
2018-02-27T19:19:37.369Z,4.55
2018-02-27T19:22:05.274Z,4.97
2018-02-27T19:24:33.218Z,3.67
2018-02-27T19:27:01.173Z,4.00
2018-02-27T19:29:29.109Z,4.20
2018-02-27T19:31:57.054Z,5.10
2018-02-27T19:34:25.021Z,3.85
2018-02-27T19:36:52.956Z,4.20
2018-02-27T19:39:20.894Z,4.10
2018-02-27T19:41:49.940Z,4.28
2018-02-27T19:44:17.906Z,4.95
2018-02-27T19:46:46.436Z,3.83
2018-02-27T19:49:14.403Z,4.18
2018-02-27T19:51:42.340Z,4.35
2018-02-27T19:54:10.492Z,4.03
2018-02-27T19:56:38.526Z,3.67
2018-02-27T19:59:06.478Z,9.05
2018-02-27T20:01:34.422Z,4.80
2018-02-27T20:04:02.445Z,3.92
2018-02-27T20:06:30.868Z,4.28
2018-02-27T20:08:58.791Z,11.90
2018-02-27T20:11:26.733Z,5.40
2018-02-27T20:13:54.747Z,5.20
2018-02-27T20:16:22.682Z,4.22
2018-02-27T20:18:50.961Z,4.20
2018-02-27T20:21:18.895Z,4.25
2018-02-27T20:23:52.550Z,5.30
2018-02-27T20:26:20.498Z,5.53
2018-02-27T20:28:55.124Z,5.15
2018-02-27T20:31:23.076Z,10.00
2018-02-27T20:33:51.123Z,10.00
2018-02-27T20:36:19.035Z,7.95
2018-02-27T20:38:54.247Z,7.37
2018-02-27T20:41:22.244Z,6.68
2018-02-27T20:43:50.721Z,5.47
2018-02-27T20:46:18.664Z,6.18
2018-02-27T20:48:46.715Z,4.70
2018-02-27T20:51:15.037Z,4.95
2018-02-27T20:53:43.008Z,6.05
2018-02-27T20:56:10.973Z,4.70
2018-02-27T20:58:38.908Z,5.90
2018-02-27T21:01:07.033Z,5.55
2018-02-27T21:03:35.015Z,5.22
2018-02-27T21:06:03.032Z,4.60
2018-02-27T21:08:30.986Z,4.40
2018-02-27T21:10:58.958Z,6.55
2018-02-27T21:13:26.940Z,4.20
2018-02-27T21:15:54.996Z,5.47
2018-02-27T21:18:22.930Z,5.57
2018-02-27T21:20:50.872Z,5.22
2018-02-27T21:23:18.949Z,6.07
2018-02-27T21:25:46.905Z,5.50
2018-02-27T21:28:14.883Z,5.47
2018-02-27T21:30:42.811Z,7.70
2018-02-27T21:33:10.757Z,7.25
2018-02-27T21:35:38.801Z,6.97
2018-02-27T21:38:06.766Z,5.62
2018-02-27T21:40:34.745Z,9.30
2018-02-27T21:43:02.679Z,6.80
2018-02-27T21:45:30.626Z,5.62
2018-02-27T21:47:59.164Z,5.90
2018-02-27T21:50:27.093Z,9.73
2018-02-27T21:52:55.046Z,5.15
2018-02-27T21:55:23.002Z,5.37
2018-02-27T21:57:50.929Z,6.25
2018-02-27T22:00:18.892Z,5.28
2018-02-27T22:02:46.891Z,8.55
2018-02-27T22:05:14.898Z,8.77
2018-02-27T22:07:42.909Z,5.62
2018-02-27T22:10:10.839Z,6.07
2018-02-27T22:12:39.383Z,5.78
2018-02-27T22:15:07.290Z,5.70
2018-02-27T22:17:35.252Z,5.82
2018-02-27T22:20:03.174Z,5.05
2018-02-27T22:22:31.093Z,4.53
2018-02-27T22:24:59.054Z,5.53
2018-02-27T22:27:27.064Z,5.40
2018-02-27T22:29:55.002Z,4.25
2018-02-27T22:32:22.972Z,6.25
2018-02-27T22:34:50.919Z,6.65
2018-02-27T22:37:18.975Z,5.25
2018-02-27T22:39:47.020Z,4.50
2018-02-27T22:42:15.002Z,5.90
2018-02-27T22:44:42.982Z,4.90
2018-02-27T22:47:10.903Z,4.80
2018-02-27T22:49:38.850Z,4.57
2018-02-27T22:52:06.780Z,5.10
2018-02-27T22:54:34.723Z,5.55
2018-02-27T22:57:02.667Z,5.32
2018-02-27T22:59:30.637Z,4.65
2018-02-27T23:01:58.717Z,5.43
2018-02-27T23:04:26.660Z,4.50
2018-02-27T23:06:54.559Z,4.35
2018-02-27T23:09:22.510Z,4.65
2018-02-27T23:11:50.445Z,5.03
2018-02-27T23:14:18.349Z,4.82
2018-02-27T23:16:46.277Z,3.53
2018-02-27T23:19:14.227Z,4.55
2018-02-27T23:21:42.156Z,4.80
2018-02-27T23:24:11.131Z,4.78
2018-02-27T23:26:40.401Z,4.80
2018-02-27T23:29:08.852Z,4.43
2018-02-27T23:31:37.701Z,4.82
2018-02-27T23:34:13.622Z,4.55
2018-02-27T23:36:41.556Z,4.43
2018-02-27T23:39:09.510Z,3.87
2018-02-27T23:41:37.427Z,4.85
2018-02-27T23:44:05.363Z,4.22
2018-02-27T23:46:33.342Z,3.90
2018-02-27T23:49:01.334Z,4.37
2018-02-27T23:51:29.287Z,4.50
2018-02-27T23:53:57.257Z,4.43
2018-02-27T23:56:25.181Z,4.75
2018-02-27T23:58:53.138Z,3.55
